sensor_id;sensor_type;location;lat;lon;timestamp;P1;durP1;ratioP1;P2;durP2;ratioP2
47894;SDS011;33653;52.302;8.134;2023-05-13T00:00:32;8.57;;;3.50;;
47894;SDS011;33653;52.302;8.134;2023-05-13T00:03:01;5.05;;;3.60;;
47894;SDS011;33653;52.302;8.134;2023-05-13T00:05:29;4.50;;;3.80;;
47894;SDS011;33653;52.302;8.134;2023-05-13T00:07:58;5.80;;;4.30;;
47894;SDS011;33653;52.302;8.134;2023-05-13T00:10:28;7.40;;;4.43;;
47894;SDS011;33653;52.302;8.134;2023-05-13T00:12:56;5.03;;;4.20;;
47894;SDS011;33653;52.302;8.134;2023-05-13T00:15:25;5.68;;;4.20;;
47894;SDS011;33653;52.302;8.134;2023-05-13T00:17:54;5.32;;;4.57;;
47894;SDS011;33653;52.302;8.134;2023-05-13T00:20:23;6.18;;;4.63;;
47894;SDS011;33653;52.302;8.134;2023-05-13T00:22:51;7.22;;;5.30;;
47894;SDS011;33653;52.302;8.134;2023-05-13T00:25:19;7.63;;;4.72;;
47894;SDS011;33653;52.302;8.134;2023-05-13T00:27:48;4.90;;;4.05;;
47894;SDS011;33653;52.302;8.134;2023-05-13T00:30:17;5.20;;;4.43;;
47894;SDS011;33653;52.302;8.134;2023-05-13T00:32:46;6.47;;;4.45;;
47894;SDS011;33653;52.302;8.134;2023-05-13T00:35:14;5.53;;;4.13;;
47894;SDS011;33653;52.302;8.134;2023-05-13T00:37:43;6.63;;;4.80;;
47894;SDS011;33653;52.302;8.134;2023-05-13T00:40:18;6.57;;;4.68;;
47894;SDS011;33653;52.302;8.134;2023-05-13T00:42:49;5.13;;;4.15;;
47894;SDS011;33653;52.302;8.134;2023-05-13T00:45:19;6.35;;;4.63;;
47894;SDS011;33653;52.302;8.134;2023-05-13T00:47:47;6.35;;;5.07;;
47894;SDS011;33653;52.302;8.134;2023-05-13T00:50:16;12.75;;;5.47;;
47894;SDS011;33653;52.302;8.134;2023-05-13T00:52:46;7.40;;;5.72;;
47894;SDS011;33653;52.302;8.134;2023-05-13T00:55:14;6.43;;;5.13;;
47894;SDS011;33653;52.302;8.134;2023-05-13T00:57:43;19.95;;;6.70;;
47894;SDS011;33653;52.302;8.134;2023-05-13T01:00:11;7.95;;;5.80;;
47894;SDS011;33653;52.302;8.134;2023-05-13T01:02:43;6.05;;;5.13;;
47894;SDS011;33653;52.302;8.134;2023-05-13T01:05:44;7.63;;;5.68;;
47894;SDS011;33653;52.302;8.134;2023-05-13T01:08:50;12.23;;;5.70;;
47894;SDS011;33653;52.302;8.134;2023-05-13T01:11:50;7.75;;;5.22;;
47894;SDS011;33653;52.302;8.134;2023-05-13T01:14:28;8.30;;;5.93;;
47894;SDS011;33653;52.302;8.134;2023-05-13T01:17:13;7.03;;;5.57;;
47894;SDS011;33653;52.302;8.134;2023-05-13T01:19:47;7.07;;;4.35;;
47894;SDS011;33653;52.302;8.134;2023-05-13T01:22:20;5.65;;;4.85;;
47894;SDS011;33653;52.302;8.134;2023-05-13T01:24:49;13.25;;;5.80;;
47894;SDS011;33653;52.302;8.134;2023-05-13T01:27:18;6.45;;;5.05;;
47894;SDS011;33653;52.302;8.134;2023-05-13T01:29:47;5.95;;;4.40;;
47894;SDS011;33653;52.302;8.134;2023-05-13T01:32:22;11.73;;;4.97;;
47894;SDS011;33653;52.302;8.134;2023-05-13T01:34:51;6.55;;;4.85;;
47894;SDS011;33653;52.302;8.134;2023-05-13T01:37:20;5.35;;;4.05;;
47894;SDS011;33653;52.302;8.134;2023-05-13T01:39:49;4.68;;;4.28;;
47894;SDS011;33653;52.302;8.134;2023-05-13T01:42:18;7.45;;;5.30;;
47894;SDS011;33653;52.302;8.134;2023-05-13T01:44:46;18.25;;;5.28;;
47894;SDS011;33653;52.302;8.134;2023-05-13T01:47:15;8.38;;;5.18;;
47894;SDS011;33653;52.302;8.134;2023-05-13T01:49:43;5.95;;;5.05;;
47894;SDS011;33653;52.302;8.134;2023-05-13T01:52:11;6.65;;;4.80;;
47894;SDS011;33653;52.302;8.134;2023-05-13T01:54:39;5.28;;;3.97;;
47894;SDS011;33653;52.302;8.134;2023-05-13T01:57:11;5.40;;;4.57;;
47894;SDS011;33653;52.302;8.134;2023-05-13T01:59:40;7.15;;;5.05;;
47894;SDS011;33653;52.302;8.134;2023-05-13T02:02:09;5.32;;;4.55;;
47894;SDS011;33653;52.302;8.134;2023-05-13T02:04:37;5.90;;;4.22;;
47894;SDS011;33653;52.302;8.134;2023-05-13T02:07:06;5.30;;;4.47;;
47894;SDS011;33653;52.302;8.134;2023-05-13T02:09:34;5.65;;;4.40;;
47894;SDS011;33653;52.302;8.134;2023-05-13T02:12:05;4.65;;;3.72;;
47894;SDS011;33653;52.302;8.134;2023-05-13T02:14:34;6.45;;;4.75;;
47894;SDS011;33653;52.302;8.134;2023-05-13T02:17:03;6.07;;;4.35;;
47894;SDS011;33653;52.302;8.134;2023-05-13T02:19:32;6.75;;;4.50;;
47894;SDS011;33653;52.302;8.134;2023-05-13T02:22:00;5.85;;;4.63;;
47894;SDS011;33653;52.302;8.134;2023-05-13T02:24:29;5.28;;;3.90;;
47894;SDS011;33653;52.302;8.134;2023-05-13T02:26:57;5.82;;;4.40;;
47894;SDS011;33653;52.302;8.134;2023-05-13T02:29:26;6.88;;;4.18;;
47894;SDS011;33653;52.302;8.134;2023-05-13T02:31:54;5.20;;;4.15;;
47894;SDS011;33653;52.302;8.134;2023-05-13T02:34:23;8.27;;;5.30;;
47894;SDS011;33653;52.302;8.134;2023-05-13T02:36:52;8.05;;;4.43;;
47894;SDS011;33653;52.302;8.134;2023-05-13T02:39:21;6.15;;;4.93;;
47894;SDS011;33653;52.302;8.134;2023-05-13T02:41:51;6.43;;;4.45;;
47894;SDS011;33653;52.302;8.134;2023-05-13T02:44:19;8.30;;;4.93;;
47894;SDS011;33653;52.302;8.134;2023-05-13T02:46:48;6.60;;;4.40;;
47894;SDS011;33653;52.302;8.134;2023-05-13T02:49:17;4.50;;;3.83;;
47894;SDS011;33653;52.302;8.134;2023-05-13T02:51:46;9.38;;;4.93;;
47894;SDS011;33653;52.302;8.134;2023-05-13T02:54:16;6.47;;;3.75;;
47894;SDS011;33653;52.302;8.134;2023-05-13T02:56:44;8.00;;;5.55;;
47894;SDS011;33653;52.302;8.134;2023-05-13T02:59:12;4.95;;;4.47;;
47894;SDS011;33653;52.302;8.134;2023-05-13T03:01:41;5.82;;;4.38;;
47894;SDS011;33653;52.302;8.134;2023-05-13T03:04:09;7.20;;;4.70;;
47894;SDS011;33653;52.302;8.134;2023-05-13T03:06:38;5.25;;;4.43;;
47894;SDS011;33653;52.302;8.134;2023-05-13T03:09:06;9.52;;;4.75;;
47894;SDS011;33653;52.302;8.134;2023-05-13T03:11:34;5.47;;;4.32;;
47894;SDS011;33653;52.302;8.134;2023-05-13T03:14:04;5.97;;;3.83;;
47894;SDS011;33653;52.302;8.134;2023-05-13T03:16:33;5.95;;;3.80;;
47894;SDS011;33653;52.302;8.134;2023-05-13T03:19:01;6.03;;;4.80;;
47894;SDS011;33653;52.302;8.134;2023-05-13T03:21:30;7.85;;;4.70;;
47894;SDS011;33653;52.302;8.134;2023-05-13T03:23:58;5.82;;;4.57;;
47894;SDS011;33653;52.302;8.134;2023-05-13T03:26:27;4.65;;;4.20;;
47894;SDS011;33653;52.302;8.134;2023-05-13T03:28:56;10.20;;;4.10;;
47894;SDS011;33653;52.302;8.134;2023-05-13T03:31:24;5.05;;;4.20;;
47894;SDS011;33653;52.302;8.134;2023-05-13T03:33:53;5.25;;;4.47;;
47894;SDS011;33653;52.302;8.134;2023-05-13T03:36:22;5.22;;;4.72;;
47894;SDS011;33653;52.302;8.134;2023-05-13T03:38:50;6.05;;;4.90;;
47894;SDS011;33653;52.302;8.134;2023-05-13T03:41:19;6.07;;;4.13;;
47894;SDS011;33653;52.302;8.134;2023-05-13T03:43:48;6.32;;;5.22;;
47894;SDS011;33653;52.302;8.134;2023-05-13T03:46:16;7.22;;;4.40;;
47894;SDS011;33653;52.302;8.134;2023-05-13T03:48:45;6.50;;;4.65;;
47894;SDS011;33653;52.302;8.134;2023-05-13T03:51:14;6.18;;;4.30;;
47894;SDS011;33653;52.302;8.134;2023-05-13T03:53:42;5.88;;;4.82;;
47894;SDS011;33653;52.302;8.134;2023-05-13T03:56:10;6.10;;;4.78;;
47894;SDS011;33653;52.302;8.134;2023-05-13T03:58:40;6.50;;;4.90;;
47894;SDS011;33653;52.302;8.134;2023-05-13T04:01:08;8.20;;;5.35;;
47894;SDS011;33653;52.302;8.134;2023-05-13T04:03:36;9.95;;;5.50;;
47894;SDS011;33653;52.302;8.134;2023-05-13T04:06:05;9.18;;;6.28;;
47894;SDS011;33653;52.302;8.134;2023-05-13T04:08:33;14.52;;;5.65;;
47894;SDS011;33653;52.302;8.134;2023-05-13T04:11:02;6.65;;;5.07;;
47894;SDS011;33653;52.302;8.134;2023-05-13T04:13:32;7.18;;;4.97;;
47894;SDS011;33653;52.302;8.134;2023-05-13T04:16:02;11.73;;;4.93;;
47894;SDS011;33653;52.302;8.134;2023-05-13T04:18:32;7.38;;;5.40;;
47894;SDS011;33653;52.302;8.134;2023-05-13T04:21:04;7.72;;;4.60;;
47894;SDS011;33653;52.302;8.134;2023-05-13T04:23:34;6.35;;;5.38;;
47894;SDS011;33653;52.302;8.134;2023-05-13T04:26:02;7.88;;;5.25;;
47894;SDS011;33653;52.302;8.134;2023-05-13T04:28:31;8.30;;;5.18;;
47894;SDS011;33653;52.302;8.134;2023-05-13T04:31:00;6.72;;;5.72;;
47894;SDS011;33653;52.302;8.134;2023-05-13T04:36:00;12.05;;;5.85;;
47894;SDS011;33653;52.302;8.134;2023-05-13T04:38:29;7.75;;;6.25;;
47894;SDS011;33653;52.302;8.134;2023-05-13T04:40:58;10.60;;;6.47;;
47894;SDS011;33653;52.302;8.134;2023-05-13T04:43:33;11.10;;;6.82;;
47894;SDS011;33653;52.302;8.134;2023-05-13T04:46:01;8.55;;;6.65;;
47894;SDS011;33653;52.302;8.134;2023-05-13T04:48:30;7.50;;;5.68;;
47894;SDS011;33653;52.302;8.134;2023-05-13T04:50:59;11.68;;;6.50;;
47894;SDS011;33653;52.302;8.134;2023-05-13T04:53:29;8.93;;;7.05;;
47894;SDS011;33653;52.302;8.134;2023-05-13T04:56:00;9.13;;;6.25;;
47894;SDS011;33653;52.302;8.134;2023-05-13T04:58:29;11.52;;;6.13;;
47894;SDS011;33653;52.302;8.134;2023-05-13T05:00:58;6.75;;;5.47;;
47894;SDS011;33653;52.302;8.134;2023-05-13T05:03:27;7.60;;;5.88;;
47894;SDS011;33653;52.302;8.134;2023-05-13T05:05:55;11.90;;;5.85;;
47894;SDS011;33653;52.302;8.134;2023-05-13T05:08:24;8.50;;;6.18;;
47894;SDS011;33653;52.302;8.134;2023-05-13T05:10:56;9.63;;;6.05;;
47894;SDS011;33653;52.302;8.134;2023-05-13T05:13:25;8.55;;;6.07;;
47894;SDS011;33653;52.302;8.134;2023-05-13T05:15:54;10.00;;;5.65;;
47894;SDS011;33653;52.302;8.134;2023-05-13T05:18:22;8.10;;;6.00;;
47894;SDS011;33653;52.302;8.134;2023-05-13T05:20:51;7.65;;;6.13;;
47894;SDS011;33653;52.302;8.134;2023-05-13T05:23:21;8.45;;;5.68;;
47894;SDS011;33653;52.302;8.134;2023-05-13T05:25:50;6.47;;;5.40;;
47894;SDS011;33653;52.302;8.134;2023-05-13T05:28:37;7.40;;;5.75;;
47894;SDS011;33653;52.302;8.134;2023-05-13T05:31:06;6.82;;;5.63;;
47894;SDS011;33653;52.302;8.134;2023-05-13T05:33:36;7.50;;;5.57;;
47894;SDS011;33653;52.302;8.134;2023-05-13T05:36:05;7.78;;;6.03;;
47894;SDS011;33653;52.302;8.134;2023-05-13T05:38:34;7.80;;;5.55;;
47894;SDS011;33653;52.302;8.134;2023-05-13T05:41:04;7.38;;;5.25;;
47894;SDS011;33653;52.302;8.134;2023-05-13T05:43:33;7.63;;;5.60;;
47894;SDS011;33653;52.302;8.134;2023-05-13T05:46:02;7.95;;;5.05;;
47894;SDS011;33653;52.302;8.134;2023-05-13T05:48:31;9.32;;;4.88;;
47894;SDS011;33653;52.302;8.134;2023-05-13T05:51:01;7.50;;;5.82;;
47894;SDS011;33653;52.302;8.134;2023-05-13T05:53:33;6.45;;;5.05;;
47894;SDS011;33653;52.302;8.134;2023-05-13T05:56:05;8.23;;;4.72;;
47894;SDS011;33653;52.302;8.134;2023-05-13T05:58:34;8.15;;;5.10;;
47894;SDS011;33653;52.302;8.134;2023-05-13T06:01:02;6.70;;;4.65;;
47894;SDS011;33653;52.302;8.134;2023-05-13T06:03:32;15.70;;;5.15;;
47894;SDS011;33653;52.302;8.134;2023-05-13T06:06:00;6.45;;;4.95;;
47894;SDS011;33653;52.302;8.134;2023-05-13T06:08:29;8.68;;;4.82;;
47894;SDS011;33653;52.302;8.134;2023-05-13T06:10:57;7.15;;;4.78;;
47894;SDS011;33653;52.302;8.134;2023-05-13T06:13:26;8.23;;;5.35;;
47894;SDS011;33653;52.302;8.134;2023-05-13T06:15:54;4.53;;;4.03;;
47894;SDS011;33653;52.302;8.134;2023-05-13T06:18:24;5.97;;;4.88;;
47894;SDS011;33653;52.302;8.134;2023-05-13T06:20:53;6.32;;;4.75;;
47894;SDS011;33653;52.302;8.134;2023-05-13T06:23:22;11.48;;;5.32;;
47894;SDS011;33653;52.302;8.134;2023-05-13T06:25:51;8.57;;;5.25;;
47894;SDS011;33653;52.302;8.134;2023-05-13T06:28:19;7.15;;;4.70;;
47894;SDS011;33653;52.302;8.134;2023-05-13T06:30:49;5.75;;;5.13;;
47894;SDS011;33653;52.302;8.134;2023-05-13T06:33:19;9.63;;;5.60;;
47894;SDS011;33653;52.302;8.134;2023-05-13T06:35:48;7.80;;;5.05;;
47894;SDS011;33653;52.302;8.134;2023-05-13T06:38:18;5.47;;;4.95;;
47894;SDS011;33653;52.302;8.134;2023-05-13T06:40:48;8.38;;;4.95;;
47894;SDS011;33653;52.302;8.134;2023-05-13T06:43:17;7.18;;;4.82;;
47894;SDS011;33653;52.302;8.134;2023-05-13T06:48:16;6.25;;;4.80;;
47894;SDS011;33653;52.302;8.134;2023-05-13T06:50:44;9.30;;;5.07;;
47894;SDS011;33653;52.302;8.134;2023-05-13T06:53:13;7.85;;;5.22;;
47894;SDS011;33653;52.302;8.134;2023-05-13T06:55:42;6.25;;;4.80;;
47894;SDS011;33653;52.302;8.134;2023-05-13T06:58:10;6.40;;;4.80;;
47894;SDS011;33653;52.302;8.134;2023-05-13T07:00:39;5.57;;;4.93;;
47894;SDS011;33653;52.302;8.134;2023-05-13T07:03:10;6.63;;;4.93;;
47894;SDS011;33653;52.302;8.134;2023-05-13T07:05:38;7.70;;;5.07;;
47894;SDS011;33653;52.302;8.134;2023-05-13T07:08:07;5.88;;;4.72;;
47894;SDS011;33653;52.302;8.134;2023-05-13T07:10:35;5.20;;;4.63;;
47894;SDS011;33653;52.302;8.134;2023-05-13T07:13:03;11.40;;;4.50;;
47894;SDS011;33653;52.302;8.134;2023-05-13T07:15:31;7.57;;;4.93;;
47894;SDS011;33653;52.302;8.134;2023-05-13T07:17:59;6.15;;;4.38;;
47894;SDS011;33653;52.302;8.134;2023-05-13T07:20:28;9.27;;;4.70;;
47894;SDS011;33653;52.302;8.134;2023-05-13T07:22:56;6.43;;;4.45;;
47894;SDS011;33653;52.302;8.134;2023-05-13T07:25:24;5.93;;;4.20;;
47894;SDS011;33653;52.302;8.134;2023-05-13T07:27:52;6.43;;;4.40;;
47894;SDS011;33653;52.302;8.134;2023-05-13T07:30:21;7.60;;;5.22;;
47894;SDS011;33653;52.302;8.134;2023-05-13T07:32:49;7.38;;;4.97;;
47894;SDS011;33653;52.302;8.134;2023-05-13T07:35:20;12.45;;;5.15;;
47894;SDS011;33653;52.302;8.134;2023-05-13T07:37:49;10.00;;;5.35;;
47894;SDS011;33653;52.302;8.134;2023-05-13T07:40:17;10.20;;;5.47;;
47894;SDS011;33653;52.302;8.134;2023-05-13T07:42:47;8.17;;;4.90;;
47894;SDS011;33653;52.302;8.134;2023-05-13T07:45:16;8.35;;;5.88;;
47894;SDS011;33653;52.302;8.134;2023-05-13T07:48:06;7.88;;;4.93;;
47894;SDS011;33653;52.302;8.134;2023-05-13T07:50:33;6.82;;;4.93;;
47894;SDS011;33653;52.302;8.134;2023-05-13T07:53:01;8.27;;;4.65;;
47894;SDS011;33653;52.302;8.134;2023-05-13T07:55:30;7.63;;;4.53;;
47894;SDS011;33653;52.302;8.134;2023-05-13T07:57:59;6.78;;;4.75;;
47894;SDS011;33653;52.302;8.134;2023-05-13T08:00:27;6.53;;;4.47;;
47894;SDS011;33653;52.302;8.134;2023-05-13T08:02:58;6.55;;;4.53;;
47894;SDS011;33653;52.302;8.134;2023-05-13T08:05:27;6.25;;;4.78;;
47894;SDS011;33653;52.302;8.134;2023-05-13T08:07:55;7.47;;;4.57;;
47894;SDS011;33653;52.302;8.134;2023-05-13T08:10:30;5.80;;;4.53;;
47894;SDS011;33653;52.302;8.134;2023-05-13T08:12:58;6.05;;;4.53;;
47894;SDS011;33653;52.302;8.134;2023-05-13T08:15:28;13.73;;;5.47;;
47894;SDS011;33653;52.302;8.134;2023-05-13T08:17:57;6.60;;;4.75;;
47894;SDS011;33653;52.302;8.134;2023-05-13T08:20:26;15.75;;;5.18;;
47894;SDS011;33653;52.302;8.134;2023-05-13T08:22:56;6.47;;;4.75;;
47894;SDS011;33653;52.302;8.134;2023-05-13T08:25:24;5.45;;;4.00;;
47894;SDS011;33653;52.302;8.134;2023-05-13T08:27:53;5.70;;;4.93;;
47894;SDS011;33653;52.302;8.134;2023-05-13T08:30:21;6.18;;;4.72;;
47894;SDS011;33653;52.302;8.134;2023-05-13T08:32:49;7.97;;;5.25;;
47894;SDS011;33653;52.302;8.134;2023-05-13T08:35:18;5.25;;;4.40;;
47894;SDS011;33653;52.302;8.134;2023-05-13T08:37:49;7.55;;;5.28;;
47894;SDS011;33653;52.302;8.134;2023-05-13T08:42:48;7.75;;;5.68;;
47894;SDS011;33653;52.302;8.134;2023-05-13T08:45:19;6.57;;;4.88;;
47894;SDS011;33653;52.302;8.134;2023-05-13T08:47:50;5.55;;;4.70;;
47894;SDS011;33653;52.302;8.134;2023-05-13T08:50:23;8.80;;;5.00;;
47894;SDS011;33653;52.302;8.134;2023-05-13T08:52:52;9.68;;;4.75;;
47894;SDS011;33653;52.302;8.134;2023-05-13T08:55:21;6.35;;;4.75;;
47894;SDS011;33653;52.302;8.134;2023-05-13T08:57:50;7.47;;;4.75;;
47894;SDS011;33653;52.302;8.134;2023-05-13T09:00:19;5.55;;;4.45;;
47894;SDS011;33653;52.302;8.134;2023-05-13T09:02:48;7.05;;;4.43;;
47894;SDS011;33653;52.302;8.134;2023-05-13T09:05:17;6.47;;;3.95;;
47894;SDS011;33653;52.302;8.134;2023-05-13T09:07:46;5.32;;;4.45;;
47894;SDS011;33653;52.302;8.134;2023-05-13T09:10:14;8.90;;;4.57;;
47894;SDS011;33653;52.302;8.134;2023-05-13T09:12:46;6.72;;;3.78;;
47894;SDS011;33653;52.302;8.134;2023-05-13T10:14:04;4.07;;;2.90;;
47894;SDS011;33653;52.302;8.134;2023-05-13T10:16:33;6.20;;;3.25;;
47894;SDS011;33653;52.302;8.134;2023-05-13T10:19:02;3.95;;;2.95;;
47894;SDS011;33653;52.302;8.134;2023-05-13T10:21:33;4.80;;;2.75;;
47894;SDS011;33653;52.302;8.134;2023-05-13T10:24:02;3.80;;;2.70;;
47894;SDS011;33653;52.302;8.134;2023-05-13T10:26:32;4.60;;;3.15;;
47894;SDS011;33653;52.302;8.134;2023-05-13T10:29:05;4.25;;;2.78;;
47894;SDS011;33653;52.302;8.134;2023-05-13T10:31:36;3.03;;;2.67;;
47894;SDS011;33653;52.302;8.134;2023-05-13T10:34:05;4.90;;;2.72;;
47894;SDS011;33653;52.302;8.134;2023-05-13T10:46:00;4.05;;;2.35;;
47894;SDS011;33653;52.302;8.134;2023-05-13T10:48:40;5.57;;;2.63;;
47894;SDS011;33653;52.302;8.134;2023-05-13T10:51:23;5.90;;;2.40;;
47894;SDS011;33653;52.302;8.134;2023-05-13T10:53:56;7.13;;;2.40;;
47894;SDS011;33653;52.302;8.134;2023-05-13T10:56:26;5.07;;;2.30;;
47894;SDS011;33653;52.302;8.134;2023-05-13T10:58:59;4.45;;;2.50;;
47894;SDS011;33653;52.302;8.134;2023-05-13T11:01:34;5.10;;;2.33;;
47894;SDS011;33653;52.302;8.134;2023-05-13T11:04:14;4.75;;;2.42;;
47894;SDS011;33653;52.302;8.134;2023-05-13T11:06:46;2.42;;;2.10;;
47894;SDS011;33653;52.302;8.134;2023-05-13T11:09:29;3.85;;;2.20;;
47894;SDS011;33653;52.302;8.134;2023-05-13T11:11:58;2.65;;;2.08;;
47894;SDS011;33653;52.302;8.134;2023-05-13T11:14:31;2.50;;;2.20;;
47894;SDS011;33653;52.302;8.134;2023-05-13T11:19:46;5.35;;;2.10;;
47894;SDS011;33653;52.302;8.134;2023-05-13T11:22:21;3.05;;;2.25;;
47894;SDS011;33653;52.302;8.134;2023-05-13T11:25:08;3.40;;;2.17;;
47894;SDS011;33653;52.302;8.134;2023-05-13T11:27:37;3.35;;;2.10;;
47894;SDS011;33653;52.302;8.134;2023-05-13T11:30:21;4.40;;;2.70;;
47894;SDS011;33653;52.302;8.134;2023-05-13T11:32:53;2.88;;;2.10;;
47894;SDS011;33653;52.302;8.134;2023-05-13T11:35:26;2.85;;;2.08;;
47894;SDS011;33653;52.302;8.134;2023-05-13T11:37:58;3.15;;;2.22;;
47894;SDS011;33653;52.302;8.134;2023-05-13T11:40:30;3.50;;;2.30;;
47894;SDS011;33653;52.302;8.134;2023-05-13T11:43:00;5.35;;;2.42;;
47894;SDS011;33653;52.302;8.134;2023-05-13T11:45:32;4.97;;;2.25;;
47894;SDS011;33653;52.302;8.134;2023-05-13T11:48:22;4.32;;;2.40;;
47894;SDS011;33653;52.302;8.134;2023-05-13T11:50:50;5.03;;;2.15;;
47894;SDS011;33653;52.302;8.134;2023-05-13T11:53:19;5.03;;;2.05;;
47894;SDS011;33653;52.302;8.134;2023-05-13T11:55:48;3.28;;;2.25;;
47894;SDS011;33653;52.302;8.134;2023-05-13T11:58:19;4.78;;;2.55;;
47894;SDS011;33653;52.302;8.134;2023-05-13T12:00:47;7.15;;;2.40;;
47894;SDS011;33653;52.302;8.134;2023-05-13T12:03:16;2.75;;;2.10;;
47894;SDS011;33653;52.302;8.134;2023-05-13T12:05:45;3.27;;;2.27;;
47894;SDS011;33653;52.302;8.134;2023-05-13T12:08:15;6.60;;;2.20;;
47894;SDS011;33653;52.302;8.134;2023-05-13T12:10:43;3.42;;;2.50;;
47894;SDS011;33653;52.302;8.134;2023-05-13T12:13:12;3.63;;;2.13;;
47894;SDS011;33653;52.302;8.134;2023-05-13T12:15:40;5.38;;;2.30;;
47894;SDS011;33653;52.302;8.134;2023-05-13T12:18:09;7.43;;;2.00;;
47894;SDS011;33653;52.302;8.134;2023-05-13T12:20:38;2.38;;;2.08;;
47894;SDS011;33653;52.302;8.134;2023-05-13T12:23:09;4.20;;;2.17;;
47894;SDS011;33653;52.302;8.134;2023-05-13T12:25:42;2.88;;;2.20;;
47894;SDS011;33653;52.302;8.134;2023-05-13T12:33:28;2.90;;;1.88;;
47894;SDS011;33653;52.302;8.134;2023-05-13T12:39:07;2.50;;;1.88;;
47894;SDS011;33653;52.302;8.134;2023-05-13T12:41:38;3.22;;;2.17;;
47894;SDS011;33653;52.302;8.134;2023-05-13T12:44:12;4.03;;;2.15;;
47894;SDS011;33653;52.302;8.134;2023-05-13T12:46:51;6.65;;;2.38;;
47894;SDS011;33653;52.302;8.134;2023-05-13T12:49:24;2.60;;;2.15;;
47894;SDS011;33653;52.302;8.134;2023-05-13T12:51:52;8.50;;;2.28;;
47894;SDS011;33653;52.302;8.134;2023-05-13T12:54:22;3.28;;;1.83;;
47894;SDS011;33653;52.302;8.134;2023-05-13T12:56:51;2.63;;;1.90;;
47894;SDS011;33653;52.302;8.134;2023-05-13T12:59:19;3.13;;;1.88;;
47894;SDS011;33653;52.302;8.134;2023-05-13T13:01:47;2.38;;;2.13;;
47894;SDS011;33653;52.302;8.134;2023-05-13T13:04:17;3.42;;;2.00;;
47894;SDS011;33653;52.302;8.134;2023-05-13T13:06:46;3.80;;;2.38;;
47894;SDS011;33653;52.302;8.134;2023-05-13T13:09:14;4.38;;;2.03;;
47894;SDS011;33653;52.302;8.134;2023-05-13T13:11:42;3.60;;;2.13;;
47894;SDS011;33653;52.302;8.134;2023-05-13T13:14:10;3.72;;;2.00;;
47894;SDS011;33653;52.302;8.134;2023-05-13T13:16:39;6.10;;;2.00;;
47894;SDS011;33653;52.302;8.134;2023-05-13T13:19:08;4.20;;;2.20;;
47894;SDS011;33653;52.302;8.134;2023-05-13T13:21:36;4.85;;;1.98;;
47894;SDS011;33653;52.302;8.134;2023-05-13T13:24:04;3.80;;;1.92;;
47894;SDS011;33653;52.302;8.134;2023-05-13T13:26:33;2.55;;;1.95;;
47894;SDS011;33653;52.302;8.134;2023-05-13T13:29:04;3.13;;;1.80;;
47894;SDS011;33653;52.302;8.134;2023-05-13T13:31:32;2.22;;;2.00;;
47894;SDS011;33653;52.302;8.134;2023-05-13T13:34:01;4.05;;;2.25;;
47894;SDS011;33653;52.302;8.134;2023-05-13T13:36:31;2.08;;;1.88;;
47894;SDS011;33653;52.302;8.134;2023-05-13T13:38:59;2.70;;;1.88;;
47894;SDS011;33653;52.302;8.134;2023-05-13T13:41:27;3.53;;;1.80;;
47894;SDS011;33653;52.302;8.134;2023-05-13T13:43:56;2.53;;;1.98;;
47894;SDS011;33653;52.302;8.134;2023-05-13T13:46:24;3.17;;;2.22;;
47894;SDS011;33653;52.302;8.134;2023-05-13T13:48:53;2.38;;;1.77;;
47894;SDS011;33653;52.302;8.134;2023-05-13T13:51:21;4.30;;;1.88;;
47894;SDS011;33653;52.302;8.134;2023-05-13T13:53:50;3.05;;;2.33;;
47894;SDS011;33653;52.302;8.134;2023-05-13T13:56:18;4.25;;;2.17;;
47894;SDS011;33653;52.302;8.134;2023-05-13T13:58:47;2.10;;;1.90;;
47894;SDS011;33653;52.302;8.134;2023-05-13T14:01:15;3.20;;;2.00;;
47894;SDS011;33653;52.302;8.134;2023-05-13T14:03:48;4.07;;;2.30;;
47894;SDS011;33653;52.302;8.134;2023-05-13T14:06:17;3.65;;;2.35;;
47894;SDS011;33653;52.302;8.134;2023-05-13T14:08:45;4.55;;;2.10;;
47894;SDS011;33653;52.302;8.134;2023-05-13T14:11:16;3.13;;;2.20;;
47894;SDS011;33653;52.302;8.134;2023-05-13T14:13:45;4.53;;;2.10;;
47894;SDS011;33653;52.302;8.134;2023-05-13T14:16:19;4.22;;;2.00;;
47894;SDS011;33653;52.302;8.134;2023-05-13T14:18:47;6.57;;;2.25;;
47894;SDS011;33653;52.302;8.134;2023-05-13T14:21:16;2.60;;;2.00;;
47894;SDS011;33653;52.302;8.134;2023-05-13T14:23:44;6.80;;;2.33;;
47894;SDS011;33653;52.302;8.134;2023-05-13T14:26:12;2.13;;;1.85;;
47894;SDS011;33653;52.302;8.134;2023-05-13T14:28:43;2.38;;;1.90;;
47894;SDS011;33653;52.302;8.134;2023-05-13T14:31:11;2.85;;;1.92;;
47894;SDS011;33653;52.302;8.134;2023-05-13T14:33:40;3.28;;;2.17;;
47894;SDS011;33653;52.302;8.134;2023-05-13T14:36:08;2.30;;;1.92;;
47894;SDS011;33653;52.302;8.134;2023-05-13T14:38:42;5.22;;;2.70;;
47894;SDS011;33653;52.302;8.134;2023-05-13T14:41:10;3.13;;;2.35;;
47894;SDS011;33653;52.302;8.134;2023-05-13T14:43:45;5.65;;;2.63;;
47894;SDS011;33653;52.302;8.134;2023-05-13T14:46:14;3.63;;;2.30;;
47894;SDS011;33653;52.302;8.134;2023-05-13T14:48:42;5.15;;;2.85;;
47894;SDS011;33653;52.302;8.134;2023-05-13T14:51:10;3.00;;;2.30;;
47894;SDS011;33653;52.302;8.134;2023-05-13T14:53:39;4.07;;;2.50;;
47894;SDS011;33653;52.302;8.134;2023-05-13T14:56:08;5.13;;;2.70;;
47894;SDS011;33653;52.302;8.134;2023-05-13T14:58:37;6.57;;;2.60;;
47894;SDS011;33653;52.302;8.134;2023-05-13T15:01:05;3.17;;;2.65;;
47894;SDS011;33653;52.302;8.134;2023-05-13T15:03:33;4.60;;;2.50;;
47894;SDS011;33653;52.302;8.134;2023-05-13T15:06:02;4.20;;;2.70;;
47894;SDS011;33653;52.302;8.134;2023-05-13T15:08:31;4.05;;;2.78;;
47894;SDS011;33653;52.302;8.134;2023-05-13T15:10:59;2.83;;;2.42;;
47894;SDS011;33653;52.302;8.134;2023-05-13T15:13:30;3.83;;;2.70;;
47894;SDS011;33653;52.302;8.134;2023-05-13T15:16:01;2.90;;;2.33;;
47894;SDS011;33653;52.302;8.134;2023-05-13T15:18:30;10.93;;;3.20;;
47894;SDS011;33653;52.302;8.134;2023-05-13T15:20:59;4.22;;;2.58;;
47894;SDS011;33653;52.302;8.134;2023-05-13T15:23:27;3.97;;;3.10;;
47894;SDS011;33653;52.302;8.134;2023-05-13T15:25:55;4.55;;;2.83;;
47894;SDS011;33653;52.302;8.134;2023-05-13T15:28:24;3.33;;;2.53;;
47894;SDS011;33653;52.302;8.134;2023-05-13T15:30:52;3.28;;;2.45;;
47894;SDS011;33653;52.302;8.134;2023-05-13T15:33:21;4.15;;;2.30;;
47894;SDS011;33653;52.302;8.134;2023-05-13T15:35:49;2.67;;;2.05;;
47894;SDS011;33653;52.302;8.134;2023-05-13T15:38:18;4.57;;;2.80;;
47894;SDS011;33653;52.302;8.134;2023-05-13T15:40:47;4.20;;;2.67;;
47894;SDS011;33653;52.302;8.134;2023-05-13T15:43:16;6.80;;;2.55;;
47894;SDS011;33653;52.302;8.134;2023-05-13T15:45:44;6.10;;;2.40;;
47894;SDS011;33653;52.302;8.134;2023-05-13T15:48:13;3.90;;;2.40;;
47894;SDS011;33653;52.302;8.134;2023-05-13T15:50:42;3.25;;;2.08;;
47894;SDS011;33653;52.302;8.134;2023-05-13T15:53:11;4.22;;;2.22;;
47894;SDS011;33653;52.302;8.134;2023-05-13T15:55:41;2.47;;;2.20;;
47894;SDS011;33653;52.302;8.134;2023-05-13T15:58:10;3.83;;;2.50;;
47894;SDS011;33653;52.302;8.134;2023-05-13T16:00:38;3.90;;;2.15;;
47894;SDS011;33653;52.302;8.134;2023-05-13T16:03:06;3.72;;;2.13;;
47894;SDS011;33653;52.302;8.134;2023-05-13T16:05:35;4.22;;;2.25;;
47894;SDS011;33653;52.302;8.134;2023-05-13T16:08:04;2.95;;;2.10;;
47894;SDS011;33653;52.302;8.134;2023-05-13T16:10:33;6.68;;;2.63;;
47894;SDS011;33653;52.302;8.134;2023-05-13T16:13:01;2.10;;;1.83;;
47894;SDS011;33653;52.302;8.134;2023-05-13T16:15:30;3.28;;;2.40;;
47894;SDS011;33653;52.302;8.134;2023-05-13T16:17:58;6.40;;;2.55;;
47894;SDS011;33653;52.302;8.134;2023-05-13T16:20:28;3.17;;;2.73;;
47894;SDS011;33653;52.302;8.134;2023-05-13T16:22:56;4.13;;;2.60;;
47894;SDS011;33653;52.302;8.134;2023-05-13T16:25:25;4.72;;;2.60;;
47894;SDS011;33653;52.302;8.134;2023-05-13T16:27:53;5.63;;;2.67;;
47894;SDS011;33653;52.302;8.134;2023-05-13T16:30:22;3.55;;;2.47;;